sensor_id;sensor_type;location;lat;lon;timestamp;pressure;altitude;pressure_sealevel;temperature;humidity
34065;BME280;20339;49.754;20.158;2023-05-08T00:01:25;97523.86;;;4.50;97.17
34065;BME280;20339;49.754;20.158;2023-05-08T00:03:59;97523.42;;;4.49;97.38
34065;BME280;20339;49.754;20.158;2023-05-08T00:06:30;97522.65;;;4.50;97.20
34065;BME280;20339;49.754;20.158;2023-05-08T00:09:01;97521.56;;;4.51;97.39
34065;BME280;20339;49.754;20.158;2023-05-08T00:11:32;97524.10;;;4.52;97.32
34065;BME280;20339;49.754;20.158;2023-05-08T00:14:03;97526.26;;;4.49;97.36
34065;BME280;20339;49.754;20.158;2023-05-08T00:16:34;97526.28;;;4.42;97.17
34065;BME280;20339;49.754;20.158;2023-05-08T00:19:05;97529.61;;;4.40;97.27
34065;BME280;20339;49.754;20.158;2023-05-08T00:21:37;97530.71;;;4.35;97.10
34065;BME280;20339;49.754;20.158;2023-05-08T00:24:08;97532.19;;;4.23;97.08
34065;BME280;20339;49.754;20.158;2023-05-08T00:26:39;97533.96;;;4.18;97.27
34065;BME280;20339;49.754;20.158;2023-05-08T00:29:12;97534.45;;;4.13;97.25
34065;BME280;20339;49.754;20.158;2023-05-08T00:31:43;97533.27;;;4.10;97.27
34065;BME280;20339;49.754;20.158;2023-05-08T00:34:14;97532.54;;;4.11;97.36
34065;BME280;20339;49.754;20.158;2023-05-08T00:36:45;97534.73;;;4.12;97.20
34065;BME280;20339;49.754;20.158;2023-05-08T00:39:16;97534.44;;;4.09;97.43
34065;BME280;20339;49.754;20.158;2023-05-08T00:41:47;97537.11;;;4.02;97.58
34065;BME280;20339;49.754;20.158;2023-05-08T00:44:18;97540.23;;;3.96;98.03
34065;BME280;20339;49.754;20.158;2023-05-08T00:46:50;97541.16;;;3.89;98.27
34065;BME280;20339;49.754;20.158;2023-05-08T00:49:22;97542.90;;;3.83;99.27
34065;BME280;20339;49.754;20.158;2023-05-08T00:51:54;97547.78;;;3.70;99.99
34065;BME280;20339;49.754;20.158;2023-05-08T00:54:27;97545.88;;;3.62;100.00
34065;BME280;20339;49.754;20.158;2023-05-08T00:56:58;97544.23;;;3.62;100.00
34065;BME280;20339;49.754;20.158;2023-05-08T00:59:30;97548.75;;;3.64;100.00
34065;BME280;20339;49.754;20.158;2023-05-08T01:02:01;97548.90;;;3.58;100.00
34065;BME280;20339;49.754;20.158;2023-05-08T01:04:34;97546.80;;;3.58;100.00
34065;BME280;20339;49.754;20.158;2023-05-08T01:07:06;97548.02;;;3.64;100.00
34065;BME280;20339;49.754;20.158;2023-05-08T01:09:37;97546.23;;;3.66;100.00
34065;BME280;20339;49.754;20.158;2023-05-08T01:12:16;97547.43;;;3.69;100.00
34065;BME280;20339;49.754;20.158;2023-05-08T01:14:59;97547.20;;;3.73;100.00
34065;BME280;20339;49.754;20.158;2023-05-08T01:17:40;97550.48;;;3.72;100.00
34065;BME280;20339;49.754;20.158;2023-05-08T01:20:22;97551.05;;;3.76;100.00
34065;BME280;20339;49.754;20.158;2023-05-08T01:23:12;97550.61;;;3.75;100.00
34065;BME280;20339;49.754;20.158;2023-05-08T01:26:17;97553.27;;;3.76;100.00
34065;BME280;20339;49.754;20.158;2023-05-08T01:29:33;97554.73;;;3.78;100.00
34065;BME280;20339;49.754;20.158;2023-05-08T01:32:20;97553.52;;;3.83;100.00
34065;BME280;20339;49.754;20.158;2023-05-08T01:34:59;97552.31;;;3.87;100.00
34065;BME280;20339;49.754;20.158;2023-05-08T01:37:38;97558.44;;;3.88;99.98
34065;BME280;20339;49.754;20.158;2023-05-08T01:40:19;97556.17;;;3.88;99.99
34065;BME280;20339;49.754;20.158;2023-05-08T01:43:02;97558.56;;;3.88;99.90
34065;BME280;20339;49.754;20.158;2023-05-08T01:45:40;97554.44;;;3.89;99.93
34065;BME280;20339;49.754;20.158;2023-05-08T01:48:23;97556.64;;;3.91;99.92
34065;BME280;20339;49.754;20.158;2023-05-08T01:50:57;97557.68;;;3.93;99.77
34065;BME280;20339;49.754;20.158;2023-05-08T01:53:33;97554.69;;;3.96;99.69
34065;BME280;20339;49.754;20.158;2023-05-08T01:56:11;97554.47;;;3.98;99.68
34065;BME280;20339;49.754;20.158;2023-05-08T01:58:43;97560.55;;;3.94;99.32
34065;BME280;20339;49.754;20.158;2023-05-08T02:01:15;97559.17;;;3.94;99.34
34065;BME280;20339;49.754;20.158;2023-05-08T02:03:49;97560.17;;;3.93;99.30
34065;BME280;20339;49.754;20.158;2023-05-08T02:06:22;97560.34;;;3.92;99.08
34065;BME280;20339;49.754;20.158;2023-05-08T02:08:56;97560.50;;;3.92;99.12
34065;BME280;20339;49.754;20.158;2023-05-08T02:11:29;97560.14;;;3.92;99.00
34065;BME280;20339;49.754;20.158;2023-05-08T02:14:02;97562.20;;;3.94;99.05
34065;BME280;20339;49.754;20.158;2023-05-08T02:16:34;97563.13;;;3.96;98.96
34065;BME280;20339;49.754;20.158;2023-05-08T02:19:07;97565.41;;;3.97;98.87
34065;BME280;20339;49.754;20.158;2023-05-08T02:21:40;97566.27;;;3.97;98.88
34065;BME280;20339;49.754;20.158;2023-05-08T02:24:13;97564.17;;;3.95;98.73
34065;BME280;20339;49.754;20.158;2023-05-08T02:26:46;97568.42;;;3.86;98.75
34065;BME280;20339;49.754;20.158;2023-05-08T02:29:18;97567.52;;;3.79;99.00
34065;BME280;20339;49.754;20.158;2023-05-08T02:31:52;97567.38;;;3.76;99.04
34065;BME280;20339;49.754;20.158;2023-05-08T02:34:24;97565.13;;;3.76;99.10
34065;BME280;20339;49.754;20.158;2023-05-08T02:36:56;97564.91;;;3.80;99.17
34065;BME280;20339;49.754;20.158;2023-05-08T02:39:30;97568.02;;;3.86;99.28
34065;BME280;20339;49.754;20.158;2023-05-08T02:42:04;97569.73;;;3.85;99.43
34065;BME280;20339;49.754;20.158;2023-05-08T02:44:35;97573.79;;;3.87;99.28
34065;BME280;20339;49.754;20.158;2023-05-08T02:47:14;97574.08;;;3.90;99.10
34065;BME280;20339;49.754;20.158;2023-05-08T02:49:50;97574.27;;;3.93;99.05
34065;BME280;20339;49.754;20.158;2023-05-08T02:52:28;97576.28;;;3.92;98.83
34065;BME280;20339;49.754;20.158;2023-05-08T02:55:02;97574.29;;;3.90;98.74
34065;BME280;20339;49.754;20.158;2023-05-08T02:57:38;97573.70;;;3.91;98.74
34065;BME280;20339;49.754;20.158;2023-05-08T03:00:17;97570.27;;;3.95;98.80
34065;BME280;20339;49.754;20.158;2023-05-08T03:02:53;97572.23;;;3.97;98.72
34065;BME280;20339;49.754;20.158;2023-05-08T03:05:29;97573.52;;;3.99;98.57
34065;BME280;20339;49.754;20.158;2023-05-08T03:08:03;97577.04;;;4.01;98.60
34065;BME280;20339;49.754;20.158;2023-05-08T03:10:37;97574.78;;;4.01;98.43
34065;BME280;20339;49.754;20.158;2023-05-08T03:13:11;97574.64;;;4.00;98.34
34065;BME280;20339;49.754;20.158;2023-05-08T03:15:45;97573.54;;;4.00;98.30
34065;BME280;20339;49.754;20.158;2023-05-08T03:18:20;97572.68;;;4.01;98.34
34065;BME280;20339;49.754;20.158;2023-05-08T03:20:54;97567.66;;;4.02;98.33
34065;BME280;20339;49.754;20.158;2023-05-08T03:23:28;97568.08;;;4.02;98.35
34065;BME280;20339;49.754;20.158;2023-05-08T03:26:01;97572.04;;;4.01;98.25
34065;BME280;20339;49.754;20.158;2023-05-08T03:28:33;97572.73;;;4.00;98.27
34065;BME280;20339;49.754;20.158;2023-05-08T03:31:05;97576.77;;;3.97;98.20
34065;BME280;20339;49.754;20.158;2023-05-08T03:33:37;97574.27;;;3.95;98.20
34065;BME280;20339;49.754;20.158;2023-05-08T03:36:09;97572.61;;;3.94;98.25
34065;BME280;20339;49.754;20.158;2023-05-08T03:38:41;97574.46;;;3.96;98.33
34065;BME280;20339;49.754;20.158;2023-05-08T03:41:12;97573.61;;;3.96;98.26
34065;BME280;20339;49.754;20.158;2023-05-08T03:43:44;97573.41;;;3.96;98.21
34065;BME280;20339;49.754;20.158;2023-05-08T03:46:16;97569.96;;;3.98;98.32
34065;BME280;20339;49.754;20.158;2023-05-08T03:48:49;97575.77;;;3.99;98.25
34065;BME280;20339;49.754;20.158;2023-05-08T03:51:22;97581.23;;;3.98;98.14
34065;BME280;20339;49.754;20.158;2023-05-08T03:53:53;97587.60;;;3.98;98.11
34065;BME280;20339;49.754;20.158;2023-05-08T03:56:24;97587.40;;;3.97;98.06
34065;BME280;20339;49.754;20.158;2023-05-08T03:58:59;97587.33;;;3.98;98.24
34065;BME280;20339;49.754;20.158;2023-05-08T04:01:39;97589.00;;;3.95;98.10
34065;BME280;20339;49.754;20.158;2023-05-08T04:04:17;97587.27;;;3.92;97.90
34065;BME280;20339;49.754;20.158;2023-05-08T04:06:53;97584.34;;;3.85;97.99
34065;BME280;20339;49.754;20.158;2023-05-08T04:09:34;97588.12;;;3.81;97.94
34065;BME280;20339;49.754;20.158;2023-05-08T04:12:19;97587.55;;;3.81;97.97
34065;BME280;20339;49.754;20.158;2023-05-08T04:14:54;97589.36;;;3.82;97.97
34065;BME280;20339;49.754;20.158;2023-05-08T04:17:33;97595.78;;;3.81;97.84
34065;BME280;20339;49.754;20.158;2023-05-08T04:20:08;97600.21;;;3.79;97.76
34065;BME280;20339;49.754;20.158;2023-05-08T04:22:44;97603.29;;;3.77;97.69
34065;BME280;20339;49.754;20.158;2023-05-08T04:25:18;97604.11;;;3.75;97.56
34065;BME280;20339;49.754;20.158;2023-05-08T04:27:50;97607.92;;;3.78;97.71
34065;BME280;20339;49.754;20.158;2023-05-08T04:30:21;97611.20;;;3.81;97.69
34065;BME280;20339;49.754;20.158;2023-05-08T04:32:52;97615.55;;;3.83;97.70
34065;BME280;20339;49.754;20.158;2023-05-08T04:35:24;97620.94;;;3.83;97.64
34065;BME280;20339;49.754;20.158;2023-05-08T04:37:55;97622.12;;;3.83;97.50
34065;BME280;20339;49.754;20.158;2023-05-08T04:40:27;97621.79;;;3.84;97.49
34065;BME280;20339;49.754;20.158;2023-05-08T04:42:58;97625.26;;;3.84;97.63
34065;BME280;20339;49.754;20.158;2023-05-08T04:45:30;97627.64;;;3.83;97.61
34065;BME280;20339;49.754;20.158;2023-05-08T04:48:02;97629.94;;;3.84;97.69
34065;BME280;20339;49.754;20.158;2023-05-08T04:50:33;97632.25;;;3.88;97.77
34065;BME280;20339;49.754;20.158;2023-05-08T04:53:04;97636.91;;;3.91;97.75
34065;BME280;20339;49.754;20.158;2023-05-08T04:55:35;97639.32;;;3.94;97.84
34065;BME280;20339;49.754;20.158;2023-05-08T04:58:07;97639.20;;;3.93;97.65
34065;BME280;20339;49.754;20.158;2023-05-08T05:00:39;97640.33;;;3.93;97.48
34065;BME280;20339;49.754;20.158;2023-05-08T05:03:10;97642.18;;;3.93;97.41
34065;BME280;20339;49.754;20.158;2023-05-08T05:05:41;97645.58;;;3.93;97.40
34065;BME280;20339;49.754;20.158;2023-05-08T05:08:12;97648.69;;;3.92;97.24
34065;BME280;20339;49.754;20.158;2023-05-08T05:10:43;97651.83;;;3.92;97.23
34065;BME280;20339;49.754;20.158;2023-05-08T05:13:14;97655.10;;;3.92;97.32
34065;BME280;20339;49.754;20.158;2023-05-08T05:15:45;97660.02;;;3.92;97.20
34065;BME280;20339;49.754;20.158;2023-05-08T05:18:16;97659.02;;;3.92;97.11
34065;BME280;20339;49.754;20.158;2023-05-08T05:20:47;97658.33;;;3.94;97.17
34065;BME280;20339;49.754;20.158;2023-05-08T05:23:19;97664.39;;;3.96;97.02
34065;BME280;20339;49.754;20.158;2023-05-08T05:25:50;97663.80;;;3.99;97.05
34065;BME280;20339;49.754;20.158;2023-05-08T05:28:21;97666.49;;;3.99;96.85
34065;BME280;20339;49.754;20.158;2023-05-08T05:30:52;97670.23;;;3.98;96.78
34065;BME280;20339;49.754;20.158;2023-05-08T05:33:24;97670.84;;;3.97;96.64
34065;BME280;20339;49.754;20.158;2023-05-08T05:35:55;97670.52;;;4.01;96.70
34065;BME280;20339;49.754;20.158;2023-05-08T05:38:26;97675.13;;;4.07;96.73
34065;BME280;20339;49.754;20.158;2023-05-08T05:40:57;97676.77;;;4.12;96.78
34065;BME280;20339;49.754;20.158;2023-05-08T05:43:28;97679.85;;;4.15;96.58
34065;BME280;20339;49.754;20.158;2023-05-08T05:46:05;97684.38;;;4.21;96.60
34065;BME280;20339;49.754;20.158;2023-05-08T05:48:38;97679.05;;;4.20;96.23
34065;BME280;20339;49.754;20.158;2023-05-08T05:51:09;97682.45;;;4.20;96.05
34065;BME280;20339;49.754;20.158;2023-05-08T05:53:40;97680.45;;;4.20;95.90
34065;BME280;20339;49.754;20.158;2023-05-08T05:56:12;97681.05;;;4.25;95.98
34065;BME280;20339;49.754;20.158;2023-05-08T05:58:43;97687.77;;;4.29;95.92
34065;BME280;20339;49.754;20.158;2023-05-08T06:01:14;97688.98;;;4.29;95.62
34065;BME280;20339;49.754;20.158;2023-05-08T06:03:45;97688.88;;;4.26;95.26
34065;BME280;20339;49.754;20.158;2023-05-08T06:06:15;97691.77;;;4.21;94.98
34065;BME280;20339;49.754;20.158;2023-05-08T06:08:46;97692.81;;;4.21;95.11
34065;BME280;20339;49.754;20.158;2023-05-08T06:11:18;97695.80;;;4.19;95.23
34065;BME280;20339;49.754;20.158;2023-05-08T06:13:51;97701.02;;;4.18;95.11
34065;BME280;20339;49.754;20.158;2023-05-08T06:16:22;97700.73;;;4.19;95.01
34065;BME280;20339;49.754;20.158;2023-05-08T06:18:53;97705.70;;;4.20;94.92
34065;BME280;20339;49.754;20.158;2023-05-08T06:21:24;97709.48;;;4.20;94.71
34065;BME280;20339;49.754;20.158;2023-05-08T06:23:57;97713.30;;;4.13;94.29
34065;BME280;20339;49.754;20.158;2023-05-08T06:26:27;97710.98;;;4.04;94.18
34065;BME280;20339;49.754;20.158;2023-05-08T06:28:58;97713.55;;;4.06;94.61
34065;BME280;20339;49.754;20.158;2023-05-08T06:31:29;97715.54;;;4.10;94.78
34065;BME280;20339;49.754;20.158;2023-05-08T06:34:01;97717.26;;;4.13;94.70
34065;BME280;20339;49.754;20.158;2023-05-08T06:36:32;97720.17;;;4.12;94.59
34065;BME280;20339;49.754;20.158;2023-05-08T06:39:04;97721.67;;;4.15;94.68
34065;BME280;20339;49.754;20.158;2023-05-08T06:41:36;97722.33;;;4.16;94.32
34065;BME280;20339;49.754;20.158;2023-05-08T06:44:07;97724.73;;;4.16;94.27
34065;BME280;20339;49.754;20.158;2023-05-08T06:46:38;97723.20;;;4.17;94.28
34065;BME280;20339;49.754;20.158;2023-05-08T06:49:09;97725.89;;;4.19;94.32
34065;BME280;20339;49.754;20.158;2023-05-08T06:51:40;97733.23;;;4.22;94.29
34065;BME280;20339;49.754;20.158;2023-05-08T06:54:11;97736.05;;;4.25;94.32
34065;BME280;20339;49.754;20.158;2023-05-08T06:56:42;97738.95;;;4.26;94.01
34065;BME280;20339;49.754;20.158;2023-05-08T06:59:12;97738.91;;;4.31;94.09
34065;BME280;20339;49.754;20.158;2023-05-08T07:01:43;97739.08;;;4.31;93.52
34065;BME280;20339;49.754;20.158;2023-05-08T07:04:14;97740.95;;;4.31;93.51
34065;BME280;20339;49.754;20.158;2023-05-08T07:06:45;97739.63;;;4.34;93.80
34065;BME280;20339;49.754;20.158;2023-05-08T07:09:16;97741.85;;;4.38;93.59
34065;BME280;20339;49.754;20.158;2023-05-08T07:11:47;97742.14;;;4.42;93.69
34065;BME280;20339;49.754;20.158;2023-05-08T07:14:18;97743.02;;;4.50;93.50
34065;BME280;20339;49.754;20.158;2023-05-08T07:16:49;97744.52;;;4.60;93.23
34065;BME280;20339;49.754;20.158;2023-05-08T07:19:21;97749.98;;;4.68;92.83
34065;BME280;20339;49.754;20.158;2023-05-08T07:21:52;97747.20;;;4.71;92.52
34065;BME280;20339;49.754;20.158;2023-05-08T07:24:23;97753.44;;;4.74;92.34
34065;BME280;20339;49.754;20.158;2023-05-08T07:26:54;97752.70;;;4.66;90.73
34065;BME280;20339;49.754;20.158;2023-05-08T07:29:25;97754.95;;;4.66;91.67
34065;BME280;20339;49.754;20.158;2023-05-08T07:31:56;97758.05;;;4.70;91.51
34065;BME280;20339;49.754;20.158;2023-05-08T07:34:27;97757.29;;;4.73;90.87
34065;BME280;20339;49.754;20.158;2023-05-08T07:36:58;97760.73;;;4.85;91.38
34065;BME280;20339;49.754;20.158;2023-05-08T07:39:29;97759.90;;;4.87;90.22
34065;BME280;20339;49.754;20.158;2023-05-08T07:42:00;97760.70;;;4.93;91.08
34065;BME280;20339;49.754;20.158;2023-05-08T07:44:33;97760.44;;;5.12;91.58
34065;BME280;20339;49.754;20.158;2023-05-08T07:47:04;97766.19;;;5.36;91.49
34065;BME280;20339;49.754;20.158;2023-05-08T07:49:35;97765.48;;;5.51;90.57
34065;BME280;20339;49.754;20.158;2023-05-08T07:52:06;97761.30;;;5.48;88.83
34065;BME280;20339;49.754;20.158;2023-05-08T07:54:37;97761.68;;;5.28;87.45
34065;BME280;20339;49.754;20.158;2023-05-08T07:57:08;97762.77;;;5.20;88.43
34065;BME280;20339;49.754;20.158;2023-05-08T07:59:40;97767.80;;;5.23;89.13
34065;BME280;20339;49.754;20.158;2023-05-08T08:02:11;97767.92;;;5.31;89.36
34065;BME280;20339;49.754;20.158;2023-05-08T08:04:42;97770.66;;;5.38;89.41
34065;BME280;20339;49.754;20.158;2023-05-08T08:07:14;97769.36;;;5.47;89.59
34065;BME280;20339;49.754;20.158;2023-05-08T08:09:45;97772.63;;;5.59;89.32
34065;BME280;20339;49.754;20.158;2023-05-08T08:12:16;97772.63;;;5.72;89.15
34065;BME280;20339;49.754;20.158;2023-05-08T08:14:47;97771.83;;;5.84;88.85
34065;BME280;20339;49.754;20.158;2023-05-08T08:17:18;97770.90;;;5.92;88.00
34065;BME280;20339;49.754;20.158;2023-05-08T08:19:49;97774.13;;;5.93;85.55
34065;BME280;20339;49.754;20.158;2023-05-08T08:22:20;97777.02;;;5.82;84.87
34065;BME280;20339;49.754;20.158;2023-05-08T08:24:53;97775.08;;;5.79;86.16
34065;BME280;20339;49.754;20.158;2023-05-08T08:27:24;97774.88;;;5.82;86.65
34065;BME280;20339;49.754;20.158;2023-05-08T08:29:55;97775.83;;;5.80;86.39
34065;BME280;20339;49.754;20.158;2023-05-08T08:32:26;97778.90;;;5.77;85.50
34065;BME280;20339;49.754;20.158;2023-05-08T08:34:57;97778.98;;;5.72;85.18
34065;BME280;20339;49.754;20.158;2023-05-08T08:37:28;97777.09;;;5.80;85.88
34065;BME280;20339;49.754;20.158;2023-05-08T08:40:00;97784.35;;;5.92;85.82
34065;BME280;20339;49.754;20.158;2023-05-08T08:42:31;97780.53;;;5.94;84.94
34065;BME280;20339;49.754;20.158;2023-05-08T08:45:02;97782.61;;;5.95;84.60
34065;BME280;20339;49.754;20.158;2023-05-08T08:47:35;97781.81;;;5.95;81.41
34065;BME280;20339;49.754;20.158;2023-05-08T08:50:09;97772.56;;;7.36;81.55
34065;BME280;20339;49.754;20.158;2023-05-08T08:52:50;97764.36;;;10.44;77.48
34065;BME280;20339;49.754;20.158;2023-05-08T08:55:26;97758.59;;;11.30;73.43
34065;BME280;20339;49.754;20.158;2023-05-08T08:58:05;97761.13;;;10.54;74.63
34065;BME280;20339;49.754;20.158;2023-05-08T09:00:37;97763.02;;;9.48;71.61
34065;BME280;20339;49.754;20.158;2023-05-08T09:03:09;97766.45;;;8.67;72.92
34065;BME280;20339;49.754;20.158;2023-05-08T09:05:46;97772.98;;;8.27;73.68
34065;BME280;20339;49.754;20.158;2023-05-08T09:08:24;97773.88;;;7.91;73.91
34065;BME280;20339;49.754;20.158;2023-05-08T09:11:11;97770.73;;;7.46;72.20
34065;BME280;20339;49.754;20.158;2023-05-08T09:13:48;97776.76;;;7.15;73.24
34065;BME280;20339;49.754;20.158;2023-05-08T09:16:26;97783.77;;;6.83;72.92
34065;BME280;20339;49.754;20.158;2023-05-08T09:19:05;97782.64;;;6.60;73.26
34065;BME280;20339;49.754;20.158;2023-05-08T09:21:53;97782.58;;;6.42;74.40
34065;BME280;20339;49.754;20.158;2023-05-08T09:24:55;97785.42;;;6.42;75.01
34065;BME280;20339;49.754;20.158;2023-05-08T09:27:37;97782.56;;;6.28;75.29
34065;BME280;20339;49.754;20.158;2023-05-08T09:30:16;97784.26;;;6.22;75.52
34065;BME280;20339;49.754;20.158;2023-05-08T09:33:12;97787.41;;;6.26;76.81
34065;BME280;20339;49.754;20.158;2023-05-08T09:35:48;97792.17;;;6.32;76.10
34065;BME280;20339;49.754;20.158;2023-05-08T09:38:37;97788.95;;;6.41;76.17
34065;BME280;20339;49.754;20.158;2023-05-08T09:41:21;97796.13;;;6.49;75.53
34065;BME280;20339;49.754;20.158;2023-05-08T09:44:04;97799.32;;;6.39;75.21
34065;BME280;20339;49.754;20.158;2023-05-08T09:46:38;97799.48;;;6.32;74.86
34065;BME280;20339;49.754;20.158;2023-05-08T09:49:17;97797.17;;;6.26;74.63
34065;BME280;20339;49.754;20.158;2023-05-08T09:51:53;97800.14;;;6.25;74.05
34065;BME280;20339;49.754;20.158;2023-05-08T09:54:24;97803.41;;;6.23;74.78
34065;BME280;20339;49.754;20.158;2023-05-08T09:56:55;97808.36;;;6.32;75.20
34065;BME280;20339;49.754;20.158;2023-05-08T09:59:28;97805.19;;;6.67;75.57
34065;BME280;20339;49.754;20.158;2023-05-08T10:01:59;97803.98;;;7.09;74.07
34065;BME280;20339;49.754;20.158;2023-05-08T10:04:40;97798.04;;;7.34;70.96
34065;BME280;20339;49.754;20.158;2023-05-08T10:07:11;97795.39;;;7.43;69.40
34065;BME280;20339;49.754;20.158;2023-05-08T10:09:58;97797.55;;;7.26;66.99
34065;BME280;20339;49.754;20.158;2023-05-08T10:12:30;97799.16;;;6.93;66.75
34065;BME280;20339;49.754;20.158;2023-05-08T10:15:01;97798.18;;;6.76;68.39
34065;BME280;20339;49.754;20.158;2023-05-08T10:17:45;97791.27;;;6.74;69.48
34065;BME280;20339;49.754;20.158;2023-05-08T10:20:20;97792.77;;;6.78;70.71
34065;BME280;20339;49.754;20.158;2023-05-08T10:22:53;97796.80;;;6.75;70.43
34065;BME280;20339;49.754;20.158;2023-05-08T10:25:27;97795.83;;;6.68;70.88
34065;BME280;20339;49.754;20.158;2023-05-08T10:28:09;97796.33;;;6.53;70.77
34065;BME280;20339;49.754;20.158;2023-05-08T10:30:46;97798.09;;;6.37;71.60
34065;BME280;20339;49.754;20.158;2023-05-08T10:33:20;97793.36;;;6.29;72.21
34065;BME280;20339;49.754;20.158;2023-05-08T10:35:54;97795.11;;;6.35;72.90
34065;BME280;20339;49.754;20.158;2023-05-08T10:38:26;97796.21;;;6.47;73.28
34065;BME280;20339;49.754;20.158;2023-05-08T10:41:00;97791.50;;;6.72;74.23
34065;BME280;20339;49.754;20.158;2023-05-08T10:43:31;97787.50;;;6.99;73.68
34065;BME280;20339;49.754;20.158;2023-05-08T10:46:10;97784.36;;;7.16;74.07
34065;BME280;20339;49.754;20.158;2023-05-08T10:48:49;97786.16;;;7.25;73.51
34065;BME280;20339;49.754;20.158;2023-05-08T10:51:34;97784.65;;;7.28;73.02
34065;BME280;20339;49.754;20.158;2023-05-08T10:54:11;97790.48;;;7.24;72.11
34065;BME280;20339;49.754;20.158;2023-05-08T10:56:43;97790.20;;;7.10;71.36
34065;BME280;20339;49.754;20.158;2023-05-08T10:59:19;97789.61;;;7.05;72.56
34065;BME280;20339;49.754;20.158;2023-05-08T11:01:51;97789.63;;;7.11;72.80
34065;BME280;20339;49.754;20.158;2023-05-08T11:04:23;97786.88;;;7.13;72.48
34065;BME280;20339;49.754;20.158;2023-05-08T11:06:57;97786.04;;;7.12;72.46
34065;BME280;20339;49.754;20.158;2023-05-08T11:09:44;97791.86;;;7.13;71.72
34065;BME280;20339;49.754;20.158;2023-05-08T11:12:22;97791.21;;;7.00;71.18
34065;BME280;20339;49.754;20.158;2023-05-08T11:15:01;97792.48;;;6.98;72.51
34065;BME280;20339;49.754;20.158;2023-05-08T11:17:33;97794.16;;;7.00;72.54
34065;BME280;20339;49.754;20.158;2023-05-08T11:20:07;97793.52;;;6.98;71.74
34065;BME280;20339;49.754;20.158;2023-05-08T11:22:47;97793.84;;;6.91;71.80
34065;BME280;20339;49.754;20.158;2023-05-08T11:25:17;97790.86;;;6.94;72.00
34065;BME280;20339;49.754;20.158;2023-05-08T11:28:10;97785.75;;;6.97;71.97
34065;BME280;20339;49.754;20.158;2023-05-08T11:30:44;97785.30;;;7.15;71.55
34065;BME280;20339;49.754;20.158;2023-05-08T11:33:16;97775.92;;;7.38;71.43
34065;BME280;20339;49.754;20.158;2023-05-08T11:35:55;97777.59;;;7.75;71.18
34065;BME280;20339;49.754;20.158;2023-05-08T11:38:31;97774.23;;;8.03;70.45
34065;BME280;20339;49.754;20.158;2023-05-08T11:41:08;97770.23;;;8.16;69.57
34065;BME280;20339;49.754;20.158;2023-05-08T11:44:12;97771.54;;;8.13;70.26
34065;BME280;20339;49.754;20.158;2023-05-08T11:46:50;97771.30;;;8.17;69.82
34065;BME280;20339;49.754;20.158;2023-05-08T11:49:23;97774.42;;;8.05;67.92
34065;BME280;20339;49.754;20.158;2023-05-08T11:51:56;97772.86;;;7.90;68.44
34065;BME280;20339;49.754;20.158;2023-05-08T11:54:31;97771.55;;;7.98;69.79
34065;BME280;20339;49.754;20.158;2023-05-08T11:57:02;97770.82;;;8.09;68.82
34065;BME280;20339;49.754;20.158;2023-05-08T11:59:36;97766.94;;;8.14;69.24
34065;BME280;20339;49.754;20.158;2023-05-08T12:02:12;97763.37;;;8.15;69.37
34065;BME280;20339;49.754;20.158;2023-05-08T12:04:47;97769.36;;;8.11;68.71
34065;BME280;20339;49.754;20.158;2023-05-08T12:07:18;97769.83;;;7.97;68.88
34065;BME280;20339;49.754;20.158;2023-05-08T12:09:52;97773.92;;;7.93;68.47
34065;BME280;20339;49.754;20.158;2023-05-08T12:12:23;97777.17;;;7.78;65.79
34065;BME280;20339;49.754;20.158;2023-05-08T12:15:09;97772.21;;;7.67;65.62
34065;BME280;20339;49.754;20.158;2023-05-08T12:17:43;97768.99;;;7.75;67.14
34065;BME280;20339;49.754;20.158;2023-05-08T12:20:17;97774.09;;;7.91;65.82
34065;BME280;20339;49.754;20.158;2023-05-08T12:22:52;97772.43;;;7.98;66.19
34065;BME280;20339;49.754;20.158;2023-05-08T12:25:25;97776.70;;;7.92;64.13
34065;BME280;20339;49.754;20.158;2023-05-08T12:27:57;97774.36;;;7.79;64.16
34065;BME280;20339;49.754;20.158;2023-05-08T12:30:29;97772.38;;;7.73;65.64
34065;BME280;20339;49.754;20.158;2023-05-08T12:33:00;97768.58;;;7.75;66.65
34065;BME280;20339;49.754;20.158;2023-05-08T12:35:33;97770.04;;;7.80;66.91
34065;BME280;20339;49.754;20.158;2023-05-08T12:38:05;97766.02;;;7.79;67.26
34065;BME280;20339;49.754;20.158;2023-05-08T12:40:42;97769.82;;;7.79;67.42
34065;BME280;20339;49.754;20.158;2023-05-08T12:43:13;97766.72;;;7.80;67.43
34065;BME280;20339;49.754;20.158;2023-05-08T12:45:44;97764.33;;;7.79;67.84
34065;BME280;20339;49.754;20.158;2023-05-08T12:48:15;97764.86;;;7.82;68.13
34065;BME280;20339;49.754;20.158;2023-05-08T12:50:47;97761.27;;;7.92;67.80
34065;BME280;20339;49.754;20.158;2023-05-08T12:53:19;97769.42;;;8.05;68.04
34065;BME280;20339;49.754;20.158;2023-05-08T12:55:54;97769.24;;;8.17;67.65
34065;BME280;20339;49.754;20.158;2023-05-08T12:58:27;97765.19;;;8.24;67.98
34065;BME280;20339;49.754;20.158;2023-05-08T13:01:06;97763.90;;;8.35;67.55
34065;BME280;20339;49.754;20.158;2023-05-08T13:03:39;97769.71;;;8.25;65.53
34065;BME280;20339;49.754;20.158;2023-05-08T13:06:20;97772.51;;;8.12;65.63
34065;BME280;20339;49.754;20.158;2023-05-08T13:08:55;97770.78;;;8.07;66.30
34065;BME280;20339;49.754;20.158;2023-05-08T13:11:32;97767.52;;;8.10;66.05
34065;BME280;20339;49.754;20.158;2023-05-08T13:14:03;97770.46;;;8.07;65.15
34065;BME280;20339;49.754;20.158;2023-05-08T13:16:44;97767.13;;;8.02;65.49
34065;BME280;20339;49.754;20.158;2023-05-08T13:19:16;97762.35;;;8.08;66.25
34065;BME280;20339;49.754;20.158;2023-05-08T13:21:47;97765.72;;;8.16;66.55
34065;BME280;20339;49.754;20.158;2023-05-08T13:24:18;97763.13;;;8.24;65.81
34065;BME280;20339;49.754;20.158;2023-05-08T13:26:49;97762.00;;;8.28;65.73
34065;BME280;20339;49.754;20.158;2023-05-08T13:29:21;97762.23;;;8.31;64.59
34065;BME280;20339;49.754;20.158;2023-05-08T13:31:52;97761.46;;;8.25;63.54
34065;BME280;20339;49.754;20.158;2023-05-08T13:34:23;97765.19;;;8.16;63.60
34065;BME280;20339;49.754;20.158;2023-05-08T13:36:54;97766.55;;;8.07;62.83